createdAt,value
2023-01-09T00:00:46.205Z,96334.94
2023-01-09T00:03:12.883Z,96332.41
2023-01-09T00:05:39.646Z,96321.34
2023-01-09T00:08:06.196Z,96334.38
2023-01-09T00:10:32.807Z,96324.50
2023-01-09T00:12:59.486Z,96303.00
2023-01-09T00:15:26.150Z,96318.34
2023-01-09T00:17:52.846Z,96323.59
2023-01-09T00:20:19.414Z,96323.94
2023-01-09T00:22:46.074Z,96324.13
2023-01-09T00:25:12.655Z,96322.25
2023-01-09T00:27:39.345Z,96321.31
2023-01-09T00:30:06.450Z,96325.28
2023-01-09T00:32:34.014Z,96321.81
2023-01-09T00:35:00.652Z,96317.53
2023-01-09T00:37:27.385Z,96302.25
2023-01-09T00:39:54.033Z,96307.75
2023-01-09T00:42:24.521Z,96308.38
2023-01-09T00:45:02.275Z,96313.06
2023-01-09T00:47:52.658Z,96309.81
2023-01-09T00:50:23.811Z,96296.41
2023-01-09T00:52:54.473Z,96311.34
2023-01-09T00:55:21.269Z,96314.28
2023-01-09T00:57:48.208Z,96309.91
2023-01-09T01:00:15.924Z,96304.94
2023-01-09T01:02:42.547Z,96312.09
2023-01-09T01:05:28.491Z,96307.47
2023-01-09T01:07:55.257Z,96318.38
2023-01-09T01:10:25.379Z,96306.56
2023-01-09T01:12:52.570Z,96318.38
2023-01-09T01:15:21.133Z,96301.47
2023-01-09T01:17:48.213Z,96293.81
2023-01-09T01:20:17.797Z,96296.22
2023-01-09T01:22:44.811Z,96282.13
2023-01-09T01:25:12.973Z,96289.84
2023-01-09T01:27:40.356Z,96291.75
2023-01-09T01:30:08.516Z,96290.44
2023-01-09T01:32:35.126Z,96281.91
2023-01-09T01:35:01.829Z,96287.47
2023-01-09T01:37:28.592Z,96263.75
2023-01-09T01:39:55.381Z,96283.31
2023-01-09T01:42:22.325Z,96268.88
2023-01-09T01:45:14.928Z,96262.16
2023-01-09T01:47:41.509Z,96275.16
2023-01-09T01:50:17.295Z,96271.59
2023-01-09T01:52:47.504Z,96273.97
2023-01-09T01:55:15.119Z,96270.78
2023-01-09T01:57:45.948Z,96271.88
2023-01-09T02:00:13.116Z,96258.78
2023-01-09T02:02:39.799Z,96277.94
2023-01-09T02:05:06.885Z,96269.91
2023-01-09T02:07:33.701Z,96263.44
2023-01-09T02:10:00.323Z,96265.81
2023-01-09T02:12:28.186Z,96269.31
2023-01-09T02:15:21.175Z,96257.69
2023-01-09T02:18:12.633Z,96266.03
2023-01-09T02:20:50.856Z,96271.69
2023-01-09T02:23:36.009Z,96255.72
2023-01-09T02:26:21.114Z,96253.69
2023-01-09T02:29:19.541Z,96253.78
2023-01-09T02:32:11.081Z,96243.06
2023-01-09T02:34:55.617Z,96252.22
2023-01-09T02:37:37.092Z,96244.97
2023-01-09T02:40:16.105Z,96248.16
2023-01-09T02:42:45.666Z,96244.97
2023-01-09T02:45:12.265Z,96226.78
2023-01-09T02:47:44.716Z,96248.63
2023-01-09T02:50:41.811Z,96243.38
2023-01-09T02:53:31.626Z,96252.13
2023-01-09T02:56:06.966Z,96261.84
2023-01-09T02:59:05.221Z,96261.94
2023-01-09T03:01:48.235Z,96263.13
2023-01-09T03:04:42.079Z,96260.84
2023-01-09T03:07:25.401Z,96263.28
2023-01-09T03:09:59.788Z,96263.59
2023-01-09T03:12:29.701Z,96261.28
2023-01-09T03:15:01.511Z,96260.41
2023-01-09T03:17:34.911Z,96256.13
2023-01-09T03:20:04.894Z,96258.88
2023-01-09T03:22:31.607Z,96259.38
2023-01-09T03:24:58.160Z,96263.66
2023-01-09T03:27:25.047Z,96250.25
2023-01-09T03:29:53.432Z,96254.53
2023-01-09T03:32:20.403Z,96226.22
2023-01-09T03:34:46.924Z,96234.19
2023-01-09T03:37:13.496Z,96223.28
2023-01-09T03:39:40.476Z,96220.09
2023-01-09T03:42:07.080Z,96215.31
2023-01-09T03:44:33.706Z,96207.66
2023-01-09T03:47:00.375Z,96216.00
2023-01-09T03:49:26.948Z,96213.19
2023-01-09T03:51:53.508Z,96213.59
2023-01-09T03:54:20.221Z,96198.59
2023-01-09T03:56:46.829Z,96183.09
2023-01-09T03:59:13.420Z,96179.94
2023-01-09T04:01:40.138Z,96175.56
2023-01-09T04:04:06.848Z,96172.19
2023-01-09T04:06:33.497Z,96174.88
2023-01-09T04:09:00.060Z,96191.84
2023-01-09T04:11:26.700Z,96188.00
2023-01-09T04:13:53.316Z,96183.44
2023-01-09T04:16:19.876Z,96165.97
2023-01-09T04:18:46.523Z,96161.41
2023-01-09T04:21:13.224Z,96158.94
2023-01-09T04:23:39.958Z,96156.16
2023-01-09T04:26:06.670Z,96159.94
2023-01-09T04:28:33.398Z,96149.09
2023-01-09T04:30:59.979Z,96146.81
2023-01-09T04:33:26.547Z,96151.06
2023-01-09T04:35:53.163Z,96145.69
2023-01-09T04:38:20.120Z,96149.84
2023-01-09T04:40:49.828Z,96162.44
2023-01-09T04:43:16.419Z,96153.09
2023-01-09T04:45:43.025Z,96148.16
2023-01-09T04:48:09.748Z,96140.66
2023-01-09T04:50:36.424Z,96130.31
2023-01-09T04:53:03.026Z,96133.50
2023-01-09T04:55:29.820Z,96141.81
2023-01-09T04:57:56.495Z,96133.50
2023-01-09T05:00:23.167Z,96130.22
2023-01-09T05:02:49.804Z,96126.16
2023-01-09T05:05:16.395Z,96127.38
2023-01-09T05:07:43.059Z,96119.22
2023-01-09T05:10:10.931Z,96125.84
2023-01-09T05:12:37.793Z,96129.03
2023-01-09T05:15:06.652Z,96127.56
2023-01-09T05:17:33.319Z,96132.91
2023-01-09T05:20:01.130Z,96126.97
2023-01-09T05:22:29.050Z,96117.34
2023-01-09T05:25:00.271Z,96113.97
2023-01-09T05:27:27.456Z,96113.09
2023-01-09T05:29:54.165Z,96106.84
2023-01-09T05:32:20.723Z,96107.03
2023-01-09T05:34:47.324Z,96095.22
2023-01-09T05:37:14.106Z,96092.63
2023-01-09T05:39:40.741Z,96090.78
2023-01-09T05:42:07.422Z,96095.81
2023-01-09T05:44:34.016Z,96092.06
2023-01-09T05:47:02.660Z,96092.25
2023-01-09T05:49:29.469Z,96089.47
2023-01-09T05:51:56.068Z,96088.38
2023-01-09T05:54:22.801Z,96096.41
2023-01-09T05:56:49.497Z,96086.28
2023-01-09T05:59:16.083Z,96074.19
2023-01-09T06:01:42.767Z,96083.34
2023-01-09T06:04:09.403Z,96076.25
2023-01-09T06:06:36.025Z,96082.03
2023-01-09T06:09:03.661Z,96077.16
2023-01-09T06:11:30.298Z,96076.75
2023-01-09T06:13:56.915Z,96080.53
2023-01-09T06:16:23.627Z,96077.94
2023-01-09T06:18:50.625Z,96081.63
2023-01-09T06:21:17.313Z,96075.75
2023-01-09T06:23:43.871Z,96084.13
2023-01-09T06:26:10.573Z,96047.81
2023-01-09T06:28:37.121Z,96079.13
2023-01-09T06:31:03.822Z,96074.94
2023-01-09T06:33:30.511Z,96074.75
2023-01-09T06:35:58.489Z,96085.25
2023-01-09T06:38:25.793Z,96081.34
2023-01-09T06:40:52.368Z,96069.91
2023-01-09T06:43:19.042Z,96075.09
2023-01-09T06:45:45.626Z,96077.63
2023-01-09T06:48:12.600Z,96080.34
2023-01-09T06:50:39.300Z,96084.53
2023-01-09T06:53:05.940Z,96074.00
2023-01-09T06:55:32.616Z,96075.50
2023-01-09T06:57:59.219Z,96071.50
2023-01-09T07:00:27.357Z,96070.66
2023-01-09T07:02:53.999Z,96060.13
2023-01-09T07:05:20.540Z,96068.56
2023-01-09T07:07:47.106Z,96067.28
2023-01-09T07:10:14.348Z,96063.94
2023-01-09T07:12:40.995Z,96062.69
2023-01-09T07:15:08.075Z,96064.53
2023-01-09T07:17:34.716Z,96062.63
2023-01-09T07:20:01.606Z,96052.28
2023-01-09T07:22:28.585Z,96069.84
2023-01-09T07:24:55.202Z,96069.81
2023-01-09T07:27:22.376Z,96041.16
2023-01-09T07:29:50.215Z,96051.34
2023-01-09T07:32:17.487Z,96060.66
2023-01-09T07:34:44.093Z,96057.31
2023-01-09T07:37:10.750Z,96050.78
2023-01-09T07:39:38.852Z,96059.75
2023-01-09T07:42:05.403Z,96050.38
2023-01-09T07:44:32.042Z,96057.63
2023-01-09T07:46:58.788Z,96032.13
2023-01-09T07:49:26.842Z,96060.28
2023-01-09T07:51:53.731Z,96063.56
2023-01-09T07:54:20.563Z,96064.94
2023-01-09T07:56:47.207Z,96070.94
2023-01-09T07:59:13.919Z,96071.88
2023-01-09T08:01:40.584Z,96061.88
2023-01-09T08:04:07.451Z,96050.47
2023-01-09T08:06:34.128Z,96046.38
2023-01-09T08:09:00.857Z,96063.34
2023-01-09T08:11:27.575Z,96053.66
2023-01-09T08:13:54.258Z,96058.03
2023-01-09T08:16:20.961Z,96058.38
2023-01-09T08:18:47.711Z,96050.16
2023-01-09T08:21:14.468Z,96049.59
2023-01-09T08:23:41.088Z,96043.66
2023-01-09T08:26:07.714Z,96049.91
2023-01-09T08:28:34.379Z,96041.22
2023-01-09T08:31:00.897Z,96030.31
2023-01-09T08:33:27.525Z,96026.50
2023-01-09T08:35:57.086Z,96042.22
2023-01-09T08:38:23.681Z,96050.25
2023-01-09T08:40:50.419Z,96040.19
2023-01-09T08:43:35.836Z,96032.47
2023-01-09T08:46:21.067Z,96038.56
2023-01-09T08:48:50.597Z,96032.84
2023-01-09T08:51:17.267Z,96039.88
2023-01-09T08:53:43.990Z,96041.94
2023-01-09T08:56:10.573Z,96040.88
2023-01-09T08:58:37.308Z,96038.31
2023-01-09T09:01:07.738Z,96022.00
2023-01-09T09:03:34.441Z,96041.84
2023-01-09T09:06:01.275Z,96034.53
2023-01-09T09:08:27.820Z,96037.47
2023-01-09T09:10:54.488Z,96037.56
2023-01-09T09:13:21.151Z,96041.28
2023-01-09T09:15:47.909Z,96035.50
2023-01-09T09:18:14.626Z,96037.09
2023-01-09T09:20:41.244Z,96019.91
2023-01-09T09:23:08.422Z,96028.34
2023-01-09T09:25:35.323Z,96021.00
2023-01-09T09:28:02.035Z,96015.84
2023-01-09T09:30:28.896Z,96011.19
2023-01-09T09:32:56.080Z,95993.63
2023-01-09T09:35:22.986Z,95995.75
2023-01-09T09:38:05.007Z,95988.41
2023-01-09T09:41:33.724Z,95989.28
2023-01-09T09:44:53.415Z,95981.94
2023-01-09T09:47:43.490Z,95986.34
2023-01-09T09:50:26.425Z,95980.22
2023-01-09T09:53:18.898Z,95979.88
2023-01-09T09:55:49.766Z,95979.88
2023-01-09T09:58:23.005Z,95974.16
2023-01-09T10:00:56.338Z,95961.03
2023-01-09T10:03:36.337Z,95967.00
2023-01-09T10:06:06.047Z,95963.59
2023-01-09T10:08:48.818Z,95951.19
2023-01-09T10:11:33.026Z,95958.91
2023-01-09T10:14:08.250Z,95952.53
2023-01-09T10:16:44.311Z,95951.16
2023-01-09T10:19:22.754Z,95961.31
2023-01-09T10:22:16.817Z,95955.97
2023-01-09T10:24:55.514Z,95957.97
2023-01-09T10:27:52.504Z,95958.41
2023-01-09T10:30:34.289Z,95959.19
2023-01-09T10:33:16.883Z,95961.56
2023-01-09T10:36:05.157Z,95961.56
2023-01-09T10:38:42.538Z,95940.75
2023-01-09T10:41:31.504Z,95964.53
2023-01-09T10:44:07.408Z,95960.59
2023-01-09T10:46:48.287Z,95960.94
2023-01-09T10:49:17.696Z,95956.91
2023-01-09T10:51:48.949Z,95951.47
2023-01-09T10:54:23.648Z,95948.88
2023-01-09T10:57:28.702Z,95943.53
2023-01-09T10:59:56.562Z,95943.19
2023-01-09T11:02:30.779Z,95934.28
2023-01-09T11:04:57.359Z,95939.00
2023-01-09T11:07:29.210Z,95940.59
2023-01-09T11:10:03.317Z,95925.44
2023-01-09T11:12:32.631Z,95938.47
2023-01-09T11:15:23.872Z,95935.84
2023-01-09T11:17:51.817Z,95934.00
2023-01-09T11:20:26.243Z,95936.38
2023-01-09T11:22:55.251Z,95931.38
2023-01-09T11:25:26.605Z,95927.53
2023-01-09T11:28:01.958Z,95939.63
2023-01-09T11:30:29.655Z,95936.53
2023-01-09T11:32:57.944Z,95932.25
2023-01-09T11:35:34.641Z,95929.19
2023-01-09T11:38:08.980Z,95934.28
2023-01-09T11:40:51.797Z,95933.47
2023-01-09T11:43:23.087Z,95931.13
2023-01-09T11:46:01.216Z,95929.47
2023-01-09T11:48:29.964Z,95935.59
2023-01-09T11:50:58.966Z,95929.97
2023-01-09T11:53:26.886Z,95938.13
2023-01-09T11:56:01.260Z,95945.41
2023-01-09T11:58:32.226Z,95941.78
2023-01-09T12:01:17.069Z,95938.66
2023-01-09T12:04:20.609Z,95942.75
2023-01-09T12:07:20.163Z,95944.94
2023-01-09T12:10:08.617Z,95937.94
2023-01-09T12:12:59.393Z,95943.72
2023-01-09T12:15:32.443Z,95943.34
2023-01-09T12:17:59.031Z,95942.66
2023-01-09T12:20:50.662Z,95935.34
2023-01-09T12:23:19.988Z,95930.69
2023-01-09T12:25:52.772Z,95929.09
2023-01-09T12:28:22.214Z,95930.59
2023-01-09T12:31:09.988Z,95913.63
2023-01-09T12:33:55.883Z,95912.84
2023-01-09T12:36:47.065Z,95924.13
2023-01-09T12:39:34.844Z,95917.22
2023-01-09T12:42:22.004Z,95917.66
2023-01-09T12:44:55.289Z,95911.88
2023-01-09T12:47:32.299Z,95913.44
2023-01-09T12:50:07.602Z,95915.28
2023-01-09T12:53:01.231Z,95895.16
2023-01-09T12:55:35.918Z,95909.78
2023-01-09T12:58:11.773Z,95908.56
2023-01-09T13:00:43.061Z,95897.97
2023-01-09T13:03:23.919Z,95894.47
2023-01-09T13:05:53.449Z,95899.19
2023-01-09T13:08:29.723Z,95893.69
2023-01-09T13:11:34.519Z,95901.44
2023-01-09T13:14:17.857Z,95896.31
2023-01-09T13:16:48.929Z,95899.34
2023-01-09T13:19:22.996Z,95906.69
2023-01-09T13:21:51.166Z,95897.69
2023-01-09T13:24:29.696Z,95908.19
2023-01-09T13:27:01.676Z,95907.38
2023-01-09T13:29:47.241Z,95914.75
2023-01-09T13:32:44.045Z,95917.78
2023-01-09T13:35:14.140Z,95916.91
2023-01-09T13:37:41.240Z,95918.06
2023-01-09T13:40:26.768Z,95929.19
2023-01-09T13:43:06.606Z,95935.66
2023-01-09T13:45:37.039Z,95940.28
2023-01-09T13:48:10.022Z,95942.56
2023-01-09T13:50:38.290Z,95935.88
2023-01-09T13:53:20.263Z,95945.59
2023-01-09T13:55:59.466Z,95945.59
2023-01-09T13:58:31.617Z,95941.31
2023-01-09T14:01:01.036Z,95954.53
2023-01-09T14:03:38.335Z,95950.56
2023-01-09T14:06:12.155Z,95959.94
2023-01-09T14:08:41.990Z,95951.91
2023-01-09T14:11:10.218Z,95962.38
2023-01-09T14:13:43.784Z,95960.91
2023-01-09T14:16:23.300Z,95962.50
2023-01-09T14:18:53.410Z,95971.75
2023-01-09T14:21:20.253Z,95981.94
2023-01-09T14:24:03.528Z,95976.03
2023-01-09T14:26:46.990Z,95967.38
2023-01-09T14:29:36.036Z,95983.72
2023-01-09T14:32:20.947Z,95986.00
2023-01-09T14:35:09.219Z,95988.69
2023-01-09T14:37:42.919Z,95990.28
2023-01-09T14:40:22.947Z,95994.13
2023-01-09T14:42:55.472Z,95997.19
2023-01-09T14:45:25.635Z,95989.28
2023-01-09T14:47:54.789Z,96004.06
2023-01-09T14:50:30.439Z,96004.41
2023-01-09T14:53:06.611Z,95998.53
2023-01-09T14:55:40.139Z,96001.16
2023-01-09T14:58:26.919Z,96009.28
2023-01-09T15:00:59.776Z,96003.06
2023-01-09T15:03:39.688Z,96009.63
2023-01-09T15:06:10.527Z,96009.16
2023-01-09T15:08:37.378Z,96011.09
2023-01-09T15:11:04.053Z,96008.38
2023-01-09T15:13:50.179Z,96006.47
2023-01-09T15:16:20.011Z,96012.69
2023-01-09T15:18:50.538Z,96013.44
2023-01-09T15:21:32.178Z,96020.00
2023-01-09T15:24:23.374Z,96026.91
2023-01-09T15:26:54.782Z,96029.06
2023-01-09T15:29:22.886Z,96023.75
2023-01-09T15:32:06.343Z,96026.44
2023-01-09T15:34:33.853Z,96025.13
2023-01-09T15:37:01.581Z,96043.28
2023-01-09T15:39:31.919Z,96047.56
2023-01-09T15:42:18.970Z,96065.03
2023-01-09T15:44:49.125Z,96063.47
2023-01-09T15:47:27.790Z,96062.34
2023-01-09T15:49:56.660Z,96068.88
2023-01-09T15:52:23.768Z,96074.28
2023-01-09T15:54:51.034Z,96063.25
2023-01-09T15:57:26.520Z,96078.94
2023-01-09T15:59:54.385Z,96076.91
2023-01-09T16:02:41.619Z,96078.84
2023-01-09T16:05:17.061Z,96080.72
2023-01-09T16:07:48.539Z,96083.44
2023-01-09T16:10:23.812Z,96081.09
2023-01-09T16:12:52.787Z,96078.59
2023-01-09T16:15:20.752Z,96085.59
2023-01-09T16:18:27.986Z,96085.16
2023-01-09T16:21:32.937Z,96090.09
2023-01-09T16:24:03.953Z,96089.22
2023-01-09T16:26:31.835Z,96073.66
2023-01-09T16:29:47.650Z,96091.47
2023-01-09T16:32:19.833Z,96091.13
2023-01-09T16:34:54.208Z,96084.13
2023-01-09T16:37:22.695Z,96102.31
2023-01-09T16:40:22.082Z,96108.84
2023-01-09T16:43:08.200Z,96091.69
2023-01-09T16:45:39.591Z,96093.75
2023-01-09T16:48:16.203Z,96123.97
2023-01-09T16:50:43.267Z,96132.09
2023-01-09T16:53:24.285Z,96128.25
2023-01-09T16:55:55.797Z,96123.97
2023-01-09T16:58:40.736Z,96122.38
2023-01-09T17:01:07.408Z,96124.28
2023-01-09T17:03:34.018Z,96123.16
2023-01-09T17:06:03.308Z,96130.97
2023-01-09T17:08:33.428Z,96134.44
2023-01-09T17:11:00.121Z,96144.50
2023-01-09T17:13:28.765Z,96132.75
2023-01-09T17:15:57.741Z,96139.75
2023-01-09T17:18:26.643Z,96146.75
2023-01-09T17:20:55.196Z,96151.03
2023-01-09T17:23:25.577Z,96152.47
2023-01-09T17:26:15.566Z,96141.91
2023-01-09T17:28:50.753Z,96168.41
2023-01-09T17:31:18.187Z,96168.88
2023-01-09T17:33:44.906Z,96166.16
2023-01-09T17:36:34.577Z,96166.81
2023-01-09T17:39:02.004Z,96172.00
2023-01-09T17:41:31.957Z,96173.81
2023-01-09T17:43:59.759Z,96170.31
2023-01-09T17:46:32.646Z,96169.06
2023-01-09T17:49:00.713Z,96169.75
2023-01-09T17:51:29.324Z,96181.22
2023-01-09T17:53:56.371Z,96181.59
2023-01-09T17:56:29.451Z,96177.50
2023-01-09T17:58:56.417Z,96191.50
2023-01-09T18:01:23.091Z,96197.72
2023-01-09T18:03:50.687Z,96191.38
2023-01-09T18:06:19.950Z,96202.78
2023-01-09T18:08:46.998Z,96203.59
2023-01-09T18:11:19.676Z,96210.91
2023-01-09T18:13:47.820Z,96203.13
2023-01-09T18:16:16.974Z,96203.44
2023-01-09T18:18:45.171Z,96207.28
2023-01-09T18:21:15.718Z,96198.59
2023-01-09T18:23:42.389Z,96201.28
2023-01-09T18:26:10.773Z,96213.50
2023-01-09T18:28:38.628Z,96204.91
2023-01-09T18:31:06.680Z,96211.56
2023-01-09T18:33:33.425Z,96206.81
2023-01-09T18:36:10.915Z,96213.50
2023-01-09T18:38:37.527Z,96211.91
2023-01-09T18:41:05.015Z,96209.19
2023-01-09T18:43:31.655Z,96217.22
2023-01-09T18:45:58.358Z,96217.97
2023-01-09T18:48:25.155Z,96224.97
2023-01-09T18:50:51.725Z,96213.38
2023-01-09T18:53:18.308Z,96219.09
2023-01-09T18:55:46.873Z,96232.31
2023-01-09T18:58:13.518Z,96237.28
2023-01-09T19:00:41.435Z,96243.00
2023-01-09T19:03:08.072Z,96241.41
2023-01-09T19:05:34.995Z,96240.97
2023-01-09T19:08:01.924Z,96236.25
2023-01-09T19:10:29.189Z,96229.91
2023-01-09T19:12:56.465Z,96235.31
2023-01-09T19:15:25.805Z,96233.16
2023-01-09T19:17:55.694Z,96243.63
2023-01-09T19:20:23.334Z,96244.97
2023-01-09T19:22:50.395Z,96259.28
2023-01-09T19:25:17.807Z,96262.00
2023-01-09T19:27:44.660Z,96263.44
2023-01-09T19:30:12.824Z,96257.13
2023-01-09T19:32:39.932Z,96254.41
2023-01-09T19:35:06.890Z,96264.75
2023-01-09T19:37:35.106Z,96260.66
2023-01-09T19:40:02.887Z,96268.47
2023-01-09T19:42:29.506Z,96262.25
2023-01-09T19:44:56.242Z,96262.59
2023-01-09T19:47:22.780Z,96259.97
2023-01-09T19:49:49.615Z,96261.53
2023-01-09T19:52:16.274Z,96264.25
2023-01-09T19:54:43.022Z,96270.78
2023-01-09T19:57:09.647Z,96268.06
2023-01-09T19:59:38.482Z,96268.06
2023-01-09T20:02:05.143Z,96260.97
2023-01-09T20:04:31.677Z,96257.00
2023-01-09T20:06:58.354Z,96263.97
2023-01-09T20:09:27.589Z,96264.66
2023-01-09T20:11:54.259Z,96258.97
2023-01-09T20:14:22.413Z,96269.59
2023-01-09T20:16:49.922Z,96269.91
2023-01-09T20:19:16.656Z,96264.38
2023-01-09T20:21:43.702Z,96274.25
2023-01-09T20:24:13.971Z,96274.78
2023-01-09T20:26:40.854Z,96281.78
2023-01-09T20:29:08.642Z,96287.06
2023-01-09T20:31:39.601Z,96263.31
2023-01-09T20:34:06.168Z,96288.03
2023-01-09T20:36:33.005Z,96288.69
2023-01-09T20:39:02.032Z,96280.13
2023-01-09T20:41:30.918Z,96286.63
2023-01-09T20:44:00.167Z,96278.28
2023-01-09T20:46:29.106Z,96279.03
2023-01-09T20:48:59.928Z,96273.16
2023-01-09T20:51:26.571Z,96265.59
2023-01-09T20:53:56.739Z,96257.22
2023-01-09T20:56:25.627Z,96275.31
2023-01-09T20:58:52.855Z,96282.66
2023-01-09T21:01:20.012Z,96282.66
2023-01-09T21:03:46.783Z,96286.59
2023-01-09T21:06:17.365Z,96286.59
2023-01-09T21:08:45.293Z,96285.66
2023-01-09T21:11:12.151Z,96281.22
2023-01-09T21:13:39.401Z,96289.63
2023-01-09T21:16:11.729Z,96284.38
2023-01-09T21:18:39.031Z,96283.09
2023-01-09T21:21:12.048Z,96292.59
2023-01-09T21:23:39.439Z,96303.41
2023-01-09T21:26:10.519Z,96301.94
2023-01-09T21:28:46.002Z,96304.00
2023-01-09T21:31:14.026Z,96307.53
2023-01-09T21:33:40.751Z,96304.00
2023-01-09T21:36:08.555Z,96301.44
2023-01-09T21:38:35.191Z,96307.81
2023-01-09T21:41:21.740Z,96318.34
2023-01-09T21:44:09.787Z,96312.13
2023-01-09T21:46:52.163Z,96323.72
2023-01-09T21:49:20.512Z,96322.47
2023-01-09T21:51:47.459Z,96327.84
2023-01-09T21:54:14.529Z,96343.16
2023-01-09T21:56:41.238Z,96346.31
2023-01-09T21:59:07.911Z,96335.06
2023-01-09T22:01:35.070Z,96339.78
2023-01-09T22:04:05.294Z,96341.06
2023-01-09T22:06:32.003Z,96342.66
2023-01-09T22:08:58.567Z,96339.59
2023-01-09T22:11:25.335Z,96346.59
2023-01-09T22:13:52.249Z,96349.63
2023-01-09T22:16:19.700Z,96356.47
2023-01-09T22:18:46.405Z,96363.31
2023-01-09T22:21:13.367Z,96362.84
2023-01-09T22:23:40.088Z,96372.06
2023-01-09T22:26:09.093Z,96365.28
2023-01-09T22:28:35.694Z,96364.81
2023-01-09T22:31:02.336Z,96367.66
2023-01-09T22:33:28.938Z,96369.22
2023-01-09T22:35:55.609Z,96367.50
2023-01-09T22:38:22.527Z,96374.81
2023-01-09T22:40:50.409Z,96375.44
2023-01-09T22:43:17.347Z,96372.75
2023-01-09T22:45:44.044Z,96384.50
2023-01-09T22:48:10.882Z,96379.09
2023-01-09T22:50:37.589Z,96374.50
2023-01-09T22:53:04.282Z,96376.09
2023-01-09T22:55:30.914Z,96377.03
2023-01-09T22:57:57.542Z,96384.50
2023-01-09T23:00:24.305Z,96382.13
2023-01-09T23:02:51.100Z,96380.69
2023-01-09T23:05:19.719Z,96385.59
2023-01-09T23:07:46.311Z,96388.31
2023-01-09T23:10:12.989Z,96386.25
2023-01-09T23:12:39.609Z,96396.59
2023-01-09T23:15:06.957Z,96390.72
2023-01-09T23:17:33.578Z,96393.72
2023-01-09T23:20:00.200Z,96395.31
2023-01-09T23:22:27.028Z,96393.91
2023-01-09T23:24:53.567Z,96387.72
2023-01-09T23:27:20.119Z,96385.16
2023-01-09T23:29:46.728Z,96391.38
2023-01-09T23:32:14.212Z,96398.34
2023-01-09T23:34:41.708Z,96391.84
2023-01-09T23:37:09.741Z,96388.84
2023-01-09T23:39:36.370Z,96394.72
2023-01-09T23:42:21.466Z,96404.06
2023-01-09T23:44:48.062Z,96384.41
2023-01-09T23:47:14.728Z,96407.41
2023-01-09T23:49:41.428Z,96397.38
2023-01-09T23:52:08.809Z,96401.53
2023-01-09T23:54:36.269Z,96392.63
2023-01-09T23:57:02.954Z,96393.09
2023-01-09T23:59:29.522Z,96404.72
